• Join FlightAware (Why Join?)
  • Login
  • US Flag 
08:29PM EDT


 

Airport Tracker/Info


-or-


 

Live Flight TrackerFlight Track Log ✈ ASQ3843 ✈ 10-Sep-2013 ✈ KORD - KICT

Flight Track Log - Related Links

Times and Time Zones

All times are in EDT time to prevent confusion due to time zone crossing. See the ASQ3843 flight status page for this flight to view local times or setup timezone preferences in your user account.

Time Position Orientation Groundspeed Altitude Reporting Facility
EDT Latitude Longitude Course Direction KTS MPH feet Rate Location/Type
10:32PM 41.9500 -87.9667 252° West 194 223 3,500  Level Chicago TRACON
10:33PM 41.9500 -88.0500 270° West 234 269 4,700 1,440 Climbing Chicago TRACON
10:34PM 41.9461 -88.1350 267° West 225 259 6,700 1,800 Climbing Chicago Center
10:35PM 41.7937 -88.3883 254° West  Level Estimated
10:35PM 41.9419 -88.2508 267° West 257 296 8,700  Level Chicago Center
10:36PM 41.7791 -88.5226 262° West  Level FlightAware Approximate
10:36PM 41.9358 -88.3550 266° West 277 319 10,300  Level Chicago Center
10:37PM 41.7313 -88.6421 252° West  Level Estimated
10:37PM 41.9311 -88.4667 267° West 300 345 11,300  Level Chicago Center
10:38PM 41.9006 -88.5817 250° West 323 372 12,300 960 Climbing Chicago Center
10:40PM 41.8686 -88.6994 250° West 337 388 13,300 960 Climbing Chicago Center
10:41PM 41.8364 -88.8175 250° West 342 394 14,300 960 Climbing Chicago Center
10:42PM 41.8036 -88.9381 250° West 346 398 15,300 1,080 Climbing Chicago Center
10:43PM 41.7636 -89.0828 250° West 347 399 16,500 1,080 Climbing Chicago Center
10:44PM 41.7289 -89.2053 249° West 353 406 17,500 900 Climbing Chicago Center
10:45PM 41.6953 -89.3267 250° West 353 406 18,400 900 Climbing Chicago Center
10:46PM 41.6642 -89.4492 251° West 352 405 19,400 900 Climbing Chicago Center
10:47PM 41.6300 -89.5667 249° West 364 419 20,300 1,020 Climbing Chicago Center
10:48PM 41.5867 -89.7172 249° West 364 419 21,500 1,020 Climbing Chicago Center
10:49PM 41.5517 -89.8439 250° West 366 421 22,500 960 Climbing Chicago Center
10:50PM 41.5156 -89.9703 249° West 368 423 23,500 960 Climbing Chicago Center
10:51PM 41.4636 -90.0861 239° Southwest 367 422 24,500 960 Climbing Chicago Center
10:52PM 41.4108 -90.1994 238° Southwest 364 419 25,500 900 Climbing Chicago Center
10:53PM 41.3583 -90.3136 239° Southwest 363 418 26,400 900 Climbing Chicago Center
10:54PM 41.3061 -90.4258 238° Southwest 361 415 27,400 960 Climbing Chicago Center
10:55PM 41.2536 -90.5394 238° Southwest 364 419 28,400 960 Climbing Chicago Center
10:56PM 41.2006 -90.6517 238° Southwest 361 415 29,400 960 Climbing Chicago Center
10:57PM 41.1492 -90.7622 238° Southwest 355 409 30,400 1,080 Climbing Chicago Center
10:58PM 41.0864 -90.8936 238° Southwest 352 405 31,600 1,080 Climbing Chicago Center
10:59PM 41.0344 -91.0047 238° Southwest 354 407 32,600 960 Climbing Chicago Center
11:00PM 40.9825 -91.1139 238° Southwest 353 406 33,600 900 Climbing Chicago Center
11:01PM 40.9308 -91.2208 237° Southwest 349 402 34,500 900 Climbing Chicago Center
11:02PM 40.8803 -91.3267 238° Southwest 346 398 35,500 720 Climbing Chicago Center
11:03PM 40.8289 -91.4339 238° Southwest 348 400 36,000 120 Climbing Chicago Center
11:05PM 40.7189 -91.6586 237° Southwest 370 426 36,000  Level Kansas City Center
11:06PM 40.6597 -91.7808 237° Southwest 392 451 36,000  Level Kansas City Center
11:07PM 40.5994 -91.9047 237° Southwest 402 463 36,000  Level Kansas City Center
11:08PM 40.5378 -92.0306 237° Southwest 410 472 36,000  Level Kansas City Center
11:09PM 40.4769 -92.1558 237° Southwest 411 473 36,000  Level Kansas City Center
11:10PM 40.4164 -92.2778 237° Southwest 405 466 36,000  Level Kansas City Center
11:11PM 40.3517 -92.4081 237° Southwest 400 460 36,000  Level Kansas City Center
11:12PM 40.2906 -92.5314 237° Southwest 403 464 36,000  Level Kansas City Center
11:13PM 40.2217 -92.6728 237° Southwest 409 471 36,000  Level Kansas City Center
11:14PM 40.1581 -92.7944 236° Southwest 421 484 36,000  Level Kansas City Center
11:15PM 40.0967 -92.9175 237° Southwest 422 486 36,000  Level Kansas City Center
11:16PM 40.0347 -93.0367 236° Southwest 419 482 36,000  Level Kansas City Center
11:17PM 39.9611 -93.1831 237° Southwest 408 470 36,000  Level Kansas City Center
11:18PM 39.8994 -93.3039 236° Southwest 404 465 36,000  Level Kansas City Center
11:19PM 39.8358 -93.4256 236° Southwest 408 470 36,000  Level Kansas City Center
11:20PM 39.7728 -93.5494 237° Southwest 412 474 36,000  Level Kansas City Center
11:21PM 39.7097 -93.6739 237° Southwest 415 478 36,000 -60 Level Kansas City Center
11:22PM 39.6411 -93.8081 236° Southwest 415 478 35,900 -540 Descending Kansas City Center
11:23PM 39.5783 -93.9278 236° Southwest 418 481 35,000 -960 Descending Kansas City Center
11:24PM 39.5056 -94.0686 236° Southwest 421 484 34,000 -540 Descending Kansas City Center
11:25PM 39.4431 -94.1875 236° Southwest 417 480 34,000  Level Kansas City Center
11:26PM 39.3808 -94.3058 236° Southwest 417 480 34,000  Level Kansas City Center
11:27PM 39.3067 -94.4458 236° Southwest 418 481 34,000  Level Kansas City Center
11:28PM 39.2436 -94.5617 235° Southwest 417 480 34,000  Level Kansas City Center
11:29PM 39.1775 -94.6831 235° Southwest 433 498 34,000  Level Kansas City Center
11:30PM 39.1139 -94.8061 236° Southwest 430 495 34,000  Level Kansas City Center
11:31PM 39.0383 -94.9478 236° Southwest 427 491 34,000  Level Kansas City Center
11:32PM 38.9719 -95.0694 235° Southwest 428 493 34,000  Level Kansas City Center
11:33PM 38.9067 -95.1925 236° Southwest 430 495 34,000  Level Kansas City Center
11:34PM 38.8289 -95.3347 235° Southwest 432 497 34,000  Level Kansas City Center
11:35PM 38.7631 -95.4561 235° Southwest 433 498 34,000  Level Kansas City Center
11:36PM 38.6969 -95.5783 235° Southwest 434 499 34,000 -300 Level Kansas City Center
11:37PM 38.6219 -95.7203 236° Southwest 430 495 33,500 -1,620 Descending Kansas City Center
11:38PM 38.5603 -95.8417 237° Southwest 426 490 30,800 -2,820 Descending Kansas City Center
11:39PM 38.4997 -95.9586 237° Southwest 415 478 27,900 -3,060 Descending Kansas City Center
11:40PM 38.4292 -96.0931 236° Southwest 408 470 24,600 -2,100 Descending Kansas City Center
11:41PM 38.3708 -96.2047 236° Southwest 397 457 23,700 -1,620 Descending Kansas City Center
11:42PM 38.3156 -96.3103 236° Southwest 378 435 21,400 -2,580 Descending Kansas City Center
11:43PM 38.2469 -96.4375 236° Southwest 389 448 18,600 -2,520 Descending Kansas City Center
11:44PM 38.1911 -96.5561 239° Southwest 393 452 16,300 -2,400 Descending Kansas City Center
11:45PM 38.1686 -96.6186 245° Southwest 379 436 14,900 -2,820 Descending Kansas City Center
11:45PM 38.1622 -96.6383 248° West 375 432 14,500 -2,940 Descending Kansas City Center
11:45PM 38.1456 -96.6750 240° Southwest 378 435 13,600 -2,520 Descending Kansas City Center
11:46PM 38.1075 -96.7406 234° Southwest 349 402 12,000 -2,280 Descending Kansas City Center
11:46PM 38.0917 -96.7742 239° Southwest 348 400 11,300 -1,620 Descending Kansas City Center
11:47PM 38.0436 -96.8547 233° Southwest 314 361 10,100 -1,320 Descending Kansas City Center
11:47PM 38.0392 -96.8658 243° Southwest 326 375 10,000 -1,200 Descending Kansas City Center
11:48PM 37.9992 -96.9339 233° Southwest 263 303 8,900 -1,320 Descending Kansas City Center
11:48PM 37.9964 -96.9428 248° West 271 312 8,700 -1,320 Descending Kansas City Center
11:49PM 37.9561 -97.0072 232° Southwest 256 295 7,600 -1,200 Descending Kansas City Center
11:49PM 37.9525 -97.0164 243° Southwest 263 303 7,500 -1,200 Descending Kansas City Center
11:50PM 37.9150 -97.0800 233° Southwest 257 296 6,400 -1,320 Descending Kansas City Center
11:50PM 37.9128 -97.0894 253° West 255 293 6,200 -1,200 Descending Kansas City Center
11:51PM 37.8778 -97.1497 234° Southwest 255 293 5,300 -1,200 Descending Kansas City Center
11:52PM 37.8708 -97.1631 237° Southwest 257 296 5,000 -1,200 Descending Kansas City Center
11:52PM 37.8389 -97.2222 236° Southwest 254 292 4,100 -1,200 Descending Kansas City Center
11:53PM 37.8325 -97.2369 241° Southwest 252 290 3,800 -1,200 Descending Kansas City Center
11:53PM 37.8072 -97.2853 237° Southwest 209 241 2,900 -1,020 Descending Kansas City Center
11:54PM 37.8011 -97.2994 241° Southwest 227 261 2,800 -420 Descending Kansas City Center
11:54PM 37.7828 -97.3369 238° Southwest 125 144 2,500 -300 Descending Kansas City Center
11:55PM 37.7817 -97.3394 241° Southwest 170 196 2,500 -120 Level Kansas City Center
11:55PM 37.7547 -97.3706 222° Southwest 122 140 2,400 -120 Descending Kansas City Center
11:56PM 37.7553 -97.3714 310° West 144 166 2,400 -120 Level Kansas City Center
11:56PM 37.7228 -97.3886 203° Southwest 124 143 2,300 -120 Descending Kansas City Center
11:57PM 37.7239 -97.3900 315° West 132 152 2,300 -300 Level Kansas City Center
11:57PM 37.6908 -97.4042 199° South 122 140 2,000 -300 Descending Kansas City Center
11:58PM 37.6922 -97.4050 335° Northwest 126 145 2,000 -600 Level Kansas City Center
11:59PM 37.6578 -97.4197 199° South 123 142 1,400 -600 Descending Kansas City Center